createdAt,value
2024-05-09T00:00:30.760Z,6.24
2024-05-09T00:03:52.512Z,6.16
2024-05-09T00:07:04.491Z,6.08
2024-05-09T00:09:38.424Z,5.99
2024-05-09T00:12:51.448Z,5.92
2024-05-09T00:16:03.906Z,5.85
2024-05-09T00:18:52.877Z,5.77
2024-05-09T00:21:21.093Z,5.67
2024-05-09T00:24:28.851Z,5.61
2024-05-09T00:27:20.480Z,5.52
2024-05-09T00:30:36.738Z,5.43
2024-05-09T00:33:48.600Z,5.28
2024-05-09T00:36:44.625Z,5.16
2024-05-09T00:39:44.124Z,5.05
2024-05-09T00:43:14.187Z,4.95
2024-05-09T00:46:19.880Z,4.83
2024-05-09T00:49:21.068Z,4.74
2024-05-09T00:52:10.377Z,4.67
2024-05-09T00:55:10.404Z,4.60
2024-05-09T00:58:17.385Z,4.52
2024-05-09T01:01:23.773Z,4.39
2024-05-09T01:04:17.768Z,4.29
2024-05-09T01:06:57.832Z,4.21
2024-05-09T01:09:36.342Z,4.14
2024-05-09T01:12:52.418Z,4.07
2024-05-09T01:15:48.336Z,3.99
2024-05-09T01:18:47.159Z,3.88
2024-05-09T01:21:59.222Z,3.79
2024-05-09T01:25:17.790Z,3.70
2024-05-09T01:29:05.532Z,3.58
2024-05-09T01:31:51.535Z,3.48
2024-05-09T01:35:43.476Z,3.39
2024-05-09T01:39:43.529Z,3.27
2024-05-09T01:43:01.470Z,3.15
2024-05-09T01:46:06.583Z,3.04
2024-05-09T01:49:04.058Z,2.99
2024-05-09T01:52:17.672Z,2.94
2024-05-09T01:55:29.353Z,2.87
2024-05-09T01:58:55.008Z,2.78
2024-05-09T02:02:33.888Z,2.68
2024-05-09T02:05:50.429Z,2.59
2024-05-09T02:09:22.047Z,2.50
2024-05-09T02:12:33.739Z,2.41
2024-05-09T02:16:05.620Z,2.31
2024-05-09T02:19:38.187Z,2.21
2024-05-09T02:23:28.727Z,2.10
2024-05-09T02:26:57.171Z,2.03
2024-05-09T02:29:57.908Z,1.98
2024-05-09T02:33:22.826Z,1.94
2024-05-09T02:37:01.606Z,1.87
2024-05-09T02:40:55.908Z,1.77
2024-05-09T02:44:16.718Z,1.72
2024-05-09T02:47:45.869Z,1.67
2024-05-09T02:51:17.500Z,1.62
2024-05-09T02:54:14.360Z,1.58
2024-05-09T02:57:41.808Z,1.55
2024-05-09T03:01:23.436Z,1.50
2024-05-09T03:04:55.330Z,1.52
2024-05-09T03:08:44.007Z,1.63
2024-05-09T03:12:07.165Z,1.88
2024-05-09T03:15:28.233Z,2.10
2024-05-09T03:18:56.561Z,2.15
2024-05-09T03:22:12.457Z,2.27
2024-05-09T03:25:46.730Z,2.68
2024-05-09T03:29:06.946Z,3.37
2024-05-09T03:32:39.095Z,3.72
2024-05-09T03:36:14.158Z,3.97
2024-05-09T03:39:38.248Z,4.05
2024-05-09T03:43:04.183Z,4.06
2024-05-09T03:46:04.909Z,4.13
2024-05-09T03:49:22.466Z,4.34
2024-05-09T03:52:16.626Z,4.46
2024-05-09T03:55:55.766Z,4.57
2024-05-09T03:59:00.375Z,4.61
2024-05-09T04:06:05.012Z,4.82
2024-05-09T04:09:16.282Z,4.90
2024-05-09T04:11:58.157Z,5.09
2024-05-09T04:15:32.491Z,5.32
2024-05-09T04:18:45.529Z,5.62
2024-05-09T04:22:02.460Z,6.07
2024-05-09T04:25:33.246Z,6.53
2024-05-09T04:29:15.840Z,6.82
2024-05-09T04:35:30.150Z,7.97
2024-05-09T04:39:45.802Z,9.05
2024-05-09T04:43:34.623Z,11.51
2024-05-09T04:47:09.246Z,13.63
2024-05-09T04:50:29.050Z,16.27
2024-05-09T04:53:27.200Z,18.05
2024-05-09T04:56:37.522Z,18.51
2024-05-09T04:59:38.319Z,19.45
2024-05-09T05:02:18.808Z,20.68
2024-05-09T05:05:18.404Z,20.83
2024-05-09T05:08:24.802Z,20.60
2024-05-09T05:11:13.876Z,21.27
2024-05-09T05:14:22.543Z,21.11
2024-05-09T05:17:18.105Z,20.76
2024-05-09T05:20:15.237Z,21.39
2024-05-09T05:23:21.370Z,20.28
2024-05-09T05:26:05.533Z,18.99
2024-05-09T05:29:02.269Z,18.58
2024-05-09T05:32:00.562Z,19.11
2024-05-09T05:35:19.018Z,19.24
2024-05-09T05:42:39.510Z,18.85
2024-05-09T05:45:52.602Z,18.39
2024-05-09T05:48:56.538Z,17.57
2024-05-09T05:52:14.124Z,17.32
2024-05-09T05:55:25.579Z,16.69
2024-05-09T05:58:13.039Z,16.62
2024-05-09T06:01:04.071Z,17.58
2024-05-09T06:03:55.809Z,18.39
2024-05-09T06:06:50.376Z,18.68
2024-05-09T06:10:17.391Z,18.98
2024-05-09T06:13:50.227Z,19.59
2024-05-09T06:17:18.713Z,19.35
2024-05-09T06:20:46.256Z,19.63
2024-05-09T06:23:44.354Z,19.92
2024-05-09T06:27:03.762Z,19.49
2024-05-09T06:30:25.310Z,20.55
2024-05-09T06:33:54.418Z,21.89
2024-05-09T06:37:02.607Z,22.57
2024-05-09T06:40:29.435Z,21.99
2024-05-09T06:43:56.397Z,21.73
2024-05-09T06:47:16.273Z,22.32
2024-05-09T06:50:28.604Z,22.31
2024-05-09T06:53:46.502Z,22.65
2024-05-09T06:56:40.034Z,23.06
2024-05-09T06:59:48.364Z,23.26
2024-05-09T07:03:07.563Z,22.14
2024-05-09T07:06:26.147Z,21.03
2024-05-09T07:09:24.189Z,22.01
2024-05-09T07:12:15.247Z,22.48
2024-05-09T07:15:23.590Z,22.95
2024-05-09T07:18:43.293Z,22.74
2024-05-09T07:21:43.753Z,21.65
2024-05-09T07:25:01.979Z,21.56
2024-05-09T07:28:15.267Z,21.27
2024-05-09T07:31:27.814Z,21.65
2024-05-09T07:34:39.464Z,21.91
2024-05-09T07:41:50.409Z,21.45
2024-05-09T07:55:23.163Z,20.08
2024-05-09T07:58:26.793Z,19.95
2024-05-09T08:01:55.463Z,19.56
2024-05-09T08:05:16.754Z,19.46
2024-05-09T08:08:16.749Z,19.92
2024-05-09T08:11:35.473Z,19.61
2024-05-09T08:14:57.321Z,18.43
2024-05-09T08:18:06.122Z,18.99
2024-05-09T08:21:18.245Z,18.89
2024-05-09T08:24:47.060Z,18.15
2024-05-09T08:27:46.996Z,18.39
2024-05-09T08:31:06.874Z,18.84
2024-05-09T08:34:26.161Z,19.17
2024-05-09T08:42:02.636Z,18.84
2024-05-09T08:45:31.461Z,18.71
2024-05-09T08:48:52.888Z,19.09
2024-05-09T08:52:14.223Z,19.57
2024-05-09T08:55:33.759Z,19.60
2024-05-09T08:58:56.922Z,19.34
2024-05-09T09:01:44.947Z,18.38
2024-05-09T09:04:20.114Z,18.04
2024-05-09T09:07:28.682Z,18.29
2024-05-09T09:10:17.850Z,17.57
2024-05-09T09:13:16.279Z,17.33
2024-05-09T09:16:34.806Z,17.77
2024-05-09T09:19:45.759Z,18.24
2024-05-09T09:22:59.755Z,18.51
2024-05-09T09:26:01.858Z,18.59
2024-05-09T09:28:58.731Z,18.69
2024-05-09T09:32:27.871Z,18.17
2024-05-09T09:35:29.363Z,18.40
2024-05-09T09:43:01.356Z,19.01
2024-05-09T09:46:22.853Z,18.61
2024-05-09T09:49:52.542Z,18.08
2024-05-09T09:53:04.137Z,18.07
2024-05-09T09:56:23.864Z,18.24
2024-05-09T09:59:37.223Z,18.56
2024-05-09T10:02:58.496Z,18.97
2024-05-09T10:06:02.027Z,19.18
2024-05-09T10:09:30.669Z,18.64
2024-05-09T10:12:43.806Z,18.16
2024-05-09T10:15:48.545Z,18.24
2024-05-09T10:19:17.379Z,18.62
2024-05-09T10:22:38.539Z,19.09
2024-05-09T10:25:49.528Z,19.47
2024-05-09T10:29:05.705Z,19.67
2024-05-09T10:32:33.040Z,19.75
2024-05-09T10:35:34.886Z,19.86
2024-05-09T10:42:33.690Z,20.37
2024-05-09T10:45:34.576Z,20.34
2024-05-09T10:48:15.683Z,20.14
2024-05-09T10:50:56.536Z,20.00
2024-05-09T10:53:52.636Z,20.05
2024-05-09T10:56:33.670Z,20.28
2024-05-09T10:59:46.821Z,20.18
2024-05-09T11:04:58.202Z,19.55
2024-05-09T11:08:00.869Z,19.08
2024-05-09T11:11:12.745Z,18.76
2024-05-09T11:14:13.894Z,18.74
2024-05-09T11:17:05.939Z,19.06
2024-05-09T11:19:52.268Z,19.40
2024-05-09T11:22:47.090Z,19.60
2024-05-09T11:26:05.451Z,19.17
2024-05-09T11:29:18.673Z,19.27
2024-05-09T11:32:08.825Z,18.67
2024-05-09T11:35:16.007Z,18.59
2024-05-09T11:42:32.306Z,19.26
2024-05-09T11:45:43.330Z,19.46
2024-05-09T11:48:42.732Z,19.74
2024-05-09T11:51:27.372Z,19.61
2024-05-09T11:54:28.805Z,19.31
2024-05-09T11:57:32.356Z,19.09
2024-05-09T12:00:54.754Z,19.17
2024-05-09T12:03:37.738Z,19.22
2024-05-09T12:06:15.662Z,19.35
2024-05-09T12:09:13.787Z,19.15
2024-05-09T12:12:07.628Z,19.22
2024-05-09T12:15:38.195Z,19.38
2024-05-09T12:18:38.250Z,19.56
2024-05-09T12:21:20.376Z,19.69
2024-05-09T12:24:21.957Z,19.50
2024-05-09T12:27:12.944Z,19.22
2024-05-09T12:30:32.275Z,18.74
2024-05-09T12:33:34.408Z,18.91
2024-05-09T12:36:18.184Z,18.78
2024-05-09T12:39:39.026Z,18.50
2024-05-09T12:42:50.689Z,18.53
2024-05-09T12:45:40.891Z,18.97
2024-05-09T12:48:39.632Z,19.31
2024-05-09T12:51:19.997Z,19.56
2024-05-09T12:53:48.243Z,19.76
2024-05-09T12:56:30.246Z,19.79
2024-05-09T12:59:08.734Z,19.74
2024-05-09T13:02:20.593Z,19.63
2024-05-09T13:05:04.382Z,19.61
2024-05-09T13:08:17.731Z,19.17
2024-05-09T13:11:26.727Z,19.05
2024-05-09T13:14:12.278Z,19.19
2024-05-09T13:17:06.594Z,19.38
2024-05-09T13:19:55.484Z,19.53
2024-05-09T13:22:38.916Z,19.52
2024-05-09T13:25:26.779Z,19.56
2024-05-09T13:27:59.019Z,19.58
2024-05-09T13:30:47.793Z,19.57
2024-05-09T13:33:36.377Z,19.60
2024-05-09T13:36:55.137Z,19.62
2024-05-09T13:39:52.556Z,19.29
2024-05-09T13:42:41.015Z,18.94
2024-05-09T13:45:32.146Z,18.99
2024-05-09T13:48:50.909Z,19.17
2024-05-09T13:52:01.637Z,19.17
2024-05-09T13:54:59.188Z,19.30
2024-05-09T13:58:00.870Z,19.25
2024-05-09T14:00:54.360Z,18.86
2024-05-09T14:03:36.903Z,18.79
2024-05-09T14:06:30.213Z,18.70
2024-05-09T14:09:24.474Z,18.78
2024-05-09T14:12:12.798Z,18.94
2024-05-09T14:15:03.527Z,19.14
2024-05-09T14:17:53.589Z,19.23
2024-05-09T14:20:49.384Z,19.24
2024-05-09T14:23:35.510Z,19.21
2024-05-09T14:26:09.059Z,19.26
2024-05-09T14:28:56.418Z,19.22
2024-05-09T14:32:16.021Z,19.19
2024-05-09T14:34:55.342Z,19.32
2024-05-09T14:42:10.996Z,19.14
2024-05-09T14:45:02.080Z,19.16
2024-05-09T14:47:50.627Z,18.96
2024-05-09T14:50:36.311Z,18.92
2024-05-09T14:53:58.291Z,18.97
2024-05-09T14:56:45.295Z,19.04
2024-05-09T14:59:35.958Z,19.01
2024-05-09T15:02:36.166Z,19.00
2024-05-09T15:05:30.179Z,19.05
2024-05-09T15:08:24.206Z,19.08
2024-05-09T15:10:59.914Z,19.02
2024-05-09T15:13:31.453Z,18.94
2024-05-09T15:16:30.102Z,18.86
2024-05-09T15:18:58.561Z,18.78
2024-05-09T15:21:50.135Z,18.54
2024-05-09T15:25:01.993Z,18.48
2024-05-09T15:27:56.324Z,18.49
2024-05-09T15:30:53.893Z,18.45
2024-05-09T15:34:04.483Z,18.51
2024-05-09T15:36:43.434Z,18.50
2024-05-09T15:40:12.107Z,18.52
2024-05-09T15:43:43.621Z,18.55
2024-05-09T15:46:54.449Z,18.52
2024-05-09T15:49:56.636Z,18.40
2024-05-09T15:53:04.948Z,18.30
2024-05-09T15:56:13.213Z,18.19
2024-05-09T15:58:53.854Z,18.05
2024-05-09T16:01:38.093Z,18.06
2024-05-09T16:04:25.653Z,18.10
2024-05-09T16:07:53.905Z,18.07
2024-05-09T16:10:41.560Z,18.06
2024-05-09T16:13:27.948Z,17.99
2024-05-09T16:16:39.416Z,18.00
2024-05-09T16:19:50.846Z,17.99
2024-05-09T16:22:36.694Z,17.99
2024-05-09T16:25:27.541Z,17.94
2024-05-09T16:28:12.263Z,17.92
2024-05-09T16:30:55.751Z,17.88
2024-05-09T16:33:41.241Z,17.87
2024-05-09T16:36:38.121Z,17.85
2024-05-09T16:39:51.963Z,17.81
2024-05-09T16:42:53.742Z,17.79
2024-05-09T16:45:36.723Z,17.76
2024-05-09T16:48:40.214Z,17.72
2024-05-09T16:51:40.551Z,17.68
2024-05-09T16:54:33.466Z,17.63
2024-05-09T16:57:13.210Z,17.58
2024-05-09T17:00:00.262Z,17.50
2024-05-09T17:02:31.005Z,17.41
2024-05-09T17:05:36.901Z,17.36
2024-05-09T17:08:11.322Z,17.29
2024-05-09T17:10:50.041Z,17.24
2024-05-09T17:13:23.738Z,17.17
2024-05-09T17:16:13.283Z,17.05
2024-05-09T17:19:32.752Z,16.95
2024-05-09T17:22:22.630Z,16.78
2024-05-09T17:25:04.040Z,16.65
2024-05-09T17:27:52.389Z,16.55
2024-05-09T17:30:46.481Z,16.44
2024-05-09T17:33:57.687Z,16.32
2024-05-09T17:37:15.578Z,16.20
2024-05-09T17:40:56.115Z,16.06
2024-05-09T17:43:42.009Z,15.85
2024-05-09T17:46:30.991Z,15.68
2024-05-09T17:49:15.593Z,15.56
2024-05-09T17:52:05.270Z,15.39
2024-05-09T17:54:33.828Z,15.24
2024-05-09T17:57:05.036Z,15.06
2024-05-09T17:59:56.271Z,14.86
2024-05-09T18:02:47.879Z,14.63
2024-05-09T18:05:19.047Z,14.39
2024-05-09T18:07:52.714Z,14.15
2024-05-09T18:11:11.189Z,13.83
2024-05-09T18:14:14.906Z,13.58
2024-05-09T18:17:55.257Z,13.27
2024-05-09T18:20:43.946Z,13.01
2024-05-09T18:23:57.385Z,12.79
2024-05-09T18:26:50.055Z,12.56
2024-05-09T18:30:17.359Z,12.30
2024-05-09T18:33:45.708Z,12.03
2024-05-09T18:36:46.399Z,11.78
2024-05-09T18:39:50.592Z,11.58
2024-05-09T18:43:25.948Z,11.40
2024-05-09T18:46:56.325Z,11.19
2024-05-09T18:50:28.607Z,11.02
2024-05-09T18:54:05.650Z,10.84
2024-05-09T18:57:26.471Z,10.65
2024-05-09T19:05:12.487Z,10.26
2024-05-09T19:08:07.599Z,10.09
2024-05-09T19:11:26.233Z,9.96
2024-05-09T19:14:26.190Z,9.81
2024-05-09T19:17:16.329Z,9.70
2024-05-09T19:20:48.524Z,9.59
2024-05-09T19:24:00.315Z,9.51
2024-05-09T19:27:49.331Z,9.45
2024-05-09T19:31:04.112Z,9.32
2024-05-09T19:34:22.201Z,9.17
2024-05-09T19:42:20.719Z,8.84
2024-05-09T19:45:36.217Z,8.76
2024-05-09T19:48:31.470Z,8.66
2024-05-09T19:51:43.003Z,8.59
2024-05-09T19:54:27.085Z,8.52
2024-05-09T19:57:37.688Z,8.41
2024-05-09T20:00:29.411Z,8.26
2024-05-09T20:03:44.090Z,8.13
2024-05-09T20:06:26.298Z,8.07
2024-05-09T20:09:36.364Z,7.97
2024-05-09T20:12:37.811Z,7.88
2024-05-09T20:15:39.548Z,7.77
2024-05-09T20:18:45.279Z,7.68
2024-05-09T20:21:50.552Z,7.59
2024-05-09T20:24:28.397Z,7.50
2024-05-09T20:27:06.343Z,7.46
2024-05-09T20:29:55.726Z,7.41
2024-05-09T20:33:14.506Z,7.35
2024-05-09T20:36:21.967Z,7.26
2024-05-09T20:39:29.849Z,7.18
2024-05-09T20:42:46.739Z,7.10
2024-05-09T20:46:08.346Z,7.01
2024-05-09T20:49:42.830Z,6.93
2024-05-09T20:52:25.240Z,6.85
2024-05-09T20:55:36.506Z,6.81
2024-05-09T20:58:38.871Z,6.75
2024-05-09T21:01:40.451Z,6.69
2024-05-09T21:05:00.984Z,6.63
2024-05-09T21:08:28.255Z,6.59
2024-05-09T21:11:27.908Z,6.57
2024-05-09T21:14:40.195Z,6.54
2024-05-09T21:18:04.961Z,6.49
2024-05-09T21:21:11.426Z,6.47
2024-05-09T21:24:35.374Z,6.43
2024-05-09T21:27:45.016Z,6.36
2024-05-09T21:30:52.225Z,6.29
2024-05-09T21:34:15.078Z,6.23
2024-05-09T21:41:49.062Z,6.08
2024-05-09T21:45:20.344Z,6.03
2024-05-09T21:48:59.552Z,5.96
2024-05-09T21:52:30.044Z,5.87
2024-05-09T21:55:17.903Z,5.78
2024-05-09T21:58:52.435Z,5.71
2024-05-09T22:02:12.443Z,5.60
2024-05-09T22:04:55.678Z,5.53
2024-05-09T22:07:47.350Z,5.49
2024-05-09T22:10:36.543Z,5.44
2024-05-09T22:13:25.899Z,5.42
2024-05-09T22:16:28.140Z,5.38
2024-05-09T22:19:29.445Z,5.31
2024-05-09T22:22:11.426Z,5.25
2024-05-09T22:24:46.453Z,5.20
2024-05-09T22:27:47.187Z,5.15
2024-05-09T22:31:10.334Z,5.12
2024-05-09T22:34:00.737Z,5.08
2024-05-09T22:36:51.680Z,5.06
2024-05-09T22:39:32.128Z,5.04
2024-05-09T22:42:33.235Z,5.00
2024-05-09T22:45:24.707Z,4.95
2024-05-09T22:47:56.726Z,4.90
2024-05-09T22:51:05.552Z,4.88
2024-05-09T22:54:08.767Z,4.85
2024-05-09T22:57:20.490Z,4.80
2024-05-09T23:00:01.021Z,4.73
2024-05-09T23:02:29.753Z,4.68
2024-05-09T23:05:44.300Z,4.64
2024-05-09T23:08:18.689Z,4.60
2024-05-09T23:10:57.051Z,4.56
2024-05-09T23:13:39.326Z,4.53
2024-05-09T23:17:02.957Z,4.51
2024-05-09T23:20:15.071Z,4.44
2024-05-09T23:24:06.751Z,4.40
2024-05-09T23:26:56.213Z,4.35
2024-05-09T23:30:43.883Z,4.33
2024-05-09T23:34:05.035Z,4.27
2024-05-09T23:41:45.791Z,4.16
2024-05-09T23:45:21.777Z,4.11
2024-05-09T23:48:24.963Z,4.08
2024-05-09T23:51:47.932Z,4.04
2024-05-09T23:55:07.541Z,3.98
2024-05-09T23:58:28.817Z,3.95
